Shuri — JL6688 — position and weather

sailwx.info

Track history (hours):
 
Tides and Currents Weather Stations Pressure Air Temp Water Temp Dewpoint Dewpoint Depression Visibility Wind Speed Wind Dir Waves Ship Positions

Shuri

Last reported at 2018-Feb-17 19:30 UTC. Time now 2018-Feb-17 19:54 UTC.
Position N 34°44' E 139°13'.

Length 167 m; draft 6.4 m.

Type: Cargo ship. MMSI: 431501723.

Date/timePositionNaut miles runAvg speedWind from/ knotsBaromVisibWave heightAir tempDewpointWater temp
2018-Feb-17 19:30N 34°44' E 139°13'917.3
2018-Feb-17 19:00N 34°38' E 139°06'917.4
2018-Feb-17 18:30N 34°32' E 138°58'918.7
2018-Feb-17 18:00N 34°31' E 138°47'918.9
2018-Feb-17 17:30N 34°30' E 138°35'1018.7
2018-Feb-17 16:58N 34°29' E 138°23'918.9
2018-Feb-17 16:30N 34°28' E 138°13'1018.1
2018-Feb-17 15:59N 34°25' E 138°01'1017.3
2018-Feb-17 15:25N 34°22' E 137°50'13216.5
2018-Feb-17 07:26N 33°30' E 135°24'1018.1
2018-Feb-17 06:54N 33°38' E 135°17'818.7
2018-Feb-17 06:29N 33°43' E 135°10'919.0
2018-Feb-17 06:00N 33°50' E 135°03'918.8
2018-Feb-17 05:30N 33°59' E 135°00'1019.5
2018-Feb-17 05:00N 34°09' E 134°59'1019.5
2018-Feb-17 04:30N 34°19' E 134°59'918.2
2018-Feb-17 04:00N 34°26' E 135°05'918.4
2018-Feb-17 03:30N 34°32' E 135°14'816.3
2018-Feb-17 03:00N 34°37' E 135°22'3 6.4
2018-Feb-17 02:30N 34°37' E 135°26'0 0.1
2018-Feb-17 01:58N 34°37' E 135°26'0 0.0
2018-Feb-17 01:28N 34°37' E 135°26'0 0.0
2018-Feb-17 00:58N 34°37' E 135°26'0 0.1
2018-Feb-17 00:28N 34°37' E 135°26'0 0.0
2018-Feb-16 23:58N 34°37' E 135°26'0 0.1
2018-Feb-16 23:28N 34°37' E 135°26'0 0.0
2018-Feb-16 22:58N 34°37' E 135°26'0 0.0
2018-Feb-16 22:28N 34°37' E 135°26'0 0.0
2018-Feb-16 21:58N 34°37' E 135°26'3 6.1
2018-Feb-16 21:30N 34°37' E 135°22'918.3
2018-Feb-16 21:00N 34°31' E 135°14'918.5
2018-Feb-16 20:30N 34°24' E 135°07'918.4
2018-Feb-16 20:00N 34°17' E 134°59'917.2
2018-Feb-16 19:30N 34°09' E 134°58'917.9
2018-Feb-16 19:00N 33°60' E 134°56'918.1
2018-Feb-16 18:30N 33°51' E 134°53'918.1
2018-Feb-16 18:00N 33°42' E 134°51'9417.9
2018-Feb-16 12:47N 32°53' E 133°15'  
2018-Feb-13 19:08N 32°46' E 133°14'9219.2
2018-Feb-13 14:20N 33°41' E 134°43'618.7
2018-Feb-13 14:00N 33°45' E 134°48'918.4
2018-Feb-13 13:30N 33°53' E 134°54'918.8
2018-Feb-13 13:00N 34°02' E 134°56'918.8
2018-Feb-13 12:31N 34°12' E 134°57'918.7
2018-Feb-13 12:01N 34°21' E 134°60'918.4
2018-Feb-13 11:30N 34°27' E 135°08'918.3
2018-Feb-13 11:01N 34°33' E 135°16'714.7
2018-Feb-13 10:30N 34°38' E 135°23'2 4.4
2018-Feb-13 10:00N 34°37' E 135°26'0 0.0
2018-Feb-13 09:28N 34°37' E 135°26'0 0.0
2018-Feb-13 08:59N 34°37' E 135°26'0 0.1
2018-Feb-13 08:28N 34°37' E 135°26'0 0.1
2018-Feb-13 07:55N 34°37' E 135°26'0 0.1
2018-Feb-13 07:28N 34°37' E 135°26'0 0.1
2018-Feb-13 06:58N 34°37' E 135°26'0 0.0
2018-Feb-13 06:29N 34°37' E 135°26'0 0.0
2018-Feb-13 05:58N 34°37' E 135°26'0 0.0
2018-Feb-13 05:28N 34°37' E 135°26'0 0.1
2018-Feb-13 04:58N 34°37' E 135°26'0 0.1
2018-Feb-13 04:28N 34°37' E 135°26'1 2.0
2018-Feb-13 04:00N 34°37' E 135°24'713.9
2018-Feb-13 03:31N 34°34' E 135°18'918.4
2018-Feb-13 03:01N 34°27' E 135°10'917.9
2018-Feb-13 02:31N 34°20' E 135°03'815.9
2018-Feb-13 02:00N 34°13' E 134°60'917.4
2018-Feb-13 01:31N 34°04' E 135°01'917.6
2018-Feb-13 01:01N 33°55' E 135°02'916.8
2018-Feb-13 00:29N 33°47' E 135°06'817.5
2018-Feb-13 00:00N 33°41' E 135°13'6015.4
2018-Feb-12 20:05N 33°43' E 136°25'10317.3
2018-Feb-12 14:06N 34°32' E 138°15'216.6
2018-Feb-12 13:57N 34°32' E 138°18'816.7
2018-Feb-12 13:30N 34°32' E 138°27'916.2
2018-Feb-12 12:56N 34°32' E 138°38'715.6
2018-Feb-12 12:30N 34°33' E 138°47'714.6
2018-Feb-12 12:00N 34°33' E 138°55'713.4
2018-Feb-12 11:30N 34°35' E 139°03'815.4
2018-Feb-12 11:00N 34°41' E 139°09'815.6
2018-Feb-12 10:28N 34°47' E 139°15'816.0
2018-Feb-12 09:57N 34°54' E 139°22'716.3
2018-Feb-12 09:30N 34°58' E 139°29'917.3
2018-Feb-12 09:00N 35°03' E 139°37'917.1
2018-Feb-12 08:30N 35°10' E 139°45'612.7
2018-Feb-12 08:00N 35°16' E 139°46'612.5
2018-Feb-12 07:31N 35°21' E 139°42'816.4
2018-Feb-12 07:01N 35°28' E 139°48'714.5
2018-Feb-12 06:30N 35°35' E 139°51'4 7.6
2018-Feb-12 06:00N 35°37' E 139°47'0 0.1
2018-Feb-12 03:56N 35°37' E 139°47'0 0.0
2018-Feb-11 22:52N 35°37' E 139°47'2 5.7
2018-Feb-11 22:31N 35°37' E 139°50'2 3.5
2018-Feb-11 21:52N 35°36' E 139°52'0 0.0
2018-Feb-11 21:28N 35°36' E 139°52'0 0.1
2018-Feb-11 20:55N 35°36' E 139°52'0 0.0
2018-Feb-11 20:28N 35°36' E 139°52'0 0.0
2018-Feb-11 19:55N 35°36' E 139°52'0 0.0
2018-Feb-11 19:28N 35°36' E 139°52'0 0.0
2018-Feb-11 18:52N 35°36' E 139°52'0 0.0
2018-Feb-11 18:25N 35°36' E 139°52'0 0.0
2018-Feb-11 17:55N 35°36' E 139°52'0 0.0
2018-Feb-11 17:28N 35°36' E 139°52'0 0.0
2018-Feb-11 16:52N 35°36' E 139°52'0 0.0
2018-Feb-11 16:28N 35°36' E 139°52'0 0.0
2018-Feb-11 15:58N 35°36' E 139°52'0 0.0
2018-Feb-11 15:22N 35°36' E 139°52'0 0.0
2018-Feb-11 14:58N 35°36' E 139°52'0 0.0
2018-Feb-11 14:19N 35°36' E 139°52'0 0.1
2018-Feb-11 13:58N 35°36' E 139°52'0 0.0
2018-Feb-11 13:22N 35°36' E 139°52'0 0.1
2018-Feb-11 12:58N 35°36' E 139°52'0 0.0
2018-Feb-11 12:28N 35°36' E 139°52'0 0.0
2018-Feb-11 11:55N 35°36' E 139°52'0 0.1
2018-Feb-11 11:28N 35°36' E 139°52'0 0.0
2018-Feb-11 10:58N 35°36' E 139°52'0 0.1
2018-Feb-11 10:28N 35°36' E 139°52'0 0.1
2018-Feb-11 09:58N 35°36' E 139°52'0 0.1
2018-Feb-11 09:19N 35°36' E 139°52'0 0.1
2018-Feb-11 08:55N 35°36' E 139°52'0 0.1
2018-Feb-11 08:28N 35°36' E 139°52'0 0.0
2018-Feb-11 07:58N 35°36' E 139°52'0 0.0
2018-Feb-11 07:28N 35°36' E 139°52'0 0.0
2018-Feb-11 06:58N 35°36' E 139°52'0 0.0
2018-Feb-11 06:28N 35°36' E 139°52'0 0.0
2018-Feb-11 05:58N 35°36' E 139°52'0 0.0
2018-Feb-11 05:25N 35°36' E 139°52'0 0.0
2018-Feb-11 04:58N 35°36' E 139°52'0 0.0
2018-Feb-11 04:28N 35°36' E 139°52'0 0.0
2018-Feb-11 03:58N 35°36' E 139°52'0 0.1
2018-Feb-11 03:30N 35°36' E 139°52'5 9.1
2018-Feb-11 03:00N 35°31' E 139°52'815.9
2018-Feb-11 02:30N 35°25' E 139°47'612.4
2018-Feb-11 02:01N 35°19' E 139°44'612.2
2018-Feb-11 01:31N 35°13' E 139°47'816.9
2018-Feb-11 01:00N 35°05' E 139°45'917.4
2018-Feb-11 00:31N 34°58' E 139°39'918.3
2018-Feb-11 00:00N 34°53' E 139°29'1019.8
2018-Feb-10 23:30N 34°48' E 139°19'1019.7
2018-Feb-10 23:00N 34°41' E 139°11'1019.9
2018-Feb-10 22:30N 34°34' E 139°02'918.7
2018-Feb-10 22:00N 34°31' E 138°52'1018.6
2018-Feb-10 21:30N 34°29' E 138°40'1018.3
2018-Feb-10 20:58N 34°28' E 138°29'818.0
2018-Feb-10 20:30N 34°26' E 138°19'1118.2
2018-Feb-10 19:53N 34°25' E 138°05'818.3
2018-Feb-10 19:28N 34°22' E 137°56'918.4
2018-Feb-10 19:00N 34°20' E 137°46'5318.2
2018-Feb-10 16:03N 33°58' E 136°47'117.1
2018-Feb-10 16:00N 33°57' E 136°47'7914.2
2018-Feb-10 10:25N 33°39' E 135°13'716.3
2018-Feb-10 10:00N 33°44' E 135°08'917.5
2018-Feb-10 09:30N 33°50' E 135°01'918.7
2018-Feb-10 09:00N 33°60' E 134°59'918.6
2018-Feb-10 08:31N 34°09' E 134°58'918.6
2018-Feb-10 08:00N 34°18' E 134°59'918.0
2018-Feb-10 07:30N 34°25' E 135°05'918.7
2018-Feb-10 07:01N 34°31' E 135°14'816.6
2018-Feb-10 06:30N 34°37' E 135°21'3 6.0
2018-Feb-10 06:00N 34°37' E 135°25'0 0.0
2018-Feb-10 05:30N 34°37' E 135°25'0 0.0
2018-Feb-10 05:00N 34°37' E 135°25'0 0.0
2018-Feb-10 04:30N 34°37' E 135°25'1 1.2
2018-Feb-10 04:00N 34°37' E 135°26'0 0.0
2018-Feb-10 03:29N 34°37' E 135°26'0 0.0
2018-Feb-10 02:59N 34°37' E 135°26'0 0.0
2018-Feb-10 02:26N 34°37' E 135°26'0 0.0
2018-Feb-10 01:56N 34°37' E 135°26'0 0.0
2018-Feb-10 01:29N 34°37' E 135°26'0 0.0
2018-Feb-10 00:59N 34°37' E 135°26'0 0.1
2018-Feb-10 00:29N 34°37' E 135°26'0 0.1
2018-Feb-09 23:59N 34°37' E 135°26'0 0.1
2018-Feb-09 23:29N 34°37' E 135°26'0 0.1
2018-Feb-09 22:59N 34°37' E 135°26'0 0.0
2018-Feb-09 22:44N 34°37' E 135°26'3 2.4
2018-Feb-09 21:31N 34°37' E 135°22'815.7
2018-Feb-09 21:00N 34°32' E 135°15'3618.1
2018-Feb-09 19:00N 33°59' E 134°56'  
Track history (hours):
 
Tides and Currents Weather Stations Pressure Air Temp Water Temp Dewpoint Dewpoint Depression Visibility Wind Speed Wind Dir Waves Ship Positions

Shuri

Last reported at 2018-Feb-17 19:30 UTC. Time now 2018-Feb-17 19:54 UTC.
Position N 34°44' E 139°13'.

Length 167 m; draft 6.4 m.

Type: Cargo ship. MMSI: 431501723.

Date/timePositionNaut miles runAvg speedWind from/ knotsBaromVisibWave heightAir tempDewpointWater temp
2018-Feb-17 19:30N 34°44' E 139°13'917.3
2018-Feb-17 19:00N 34°38' E 139°06'917.4
2018-Feb-17 18:30N 34°32' E 138°58'918.7
2018-Feb-17 18:00N 34°31' E 138°47'918.9
2018-Feb-17 17:30N 34°30' E 138°35'1018.7
2018-Feb-17 16:58N 34°29' E 138°23'918.9
2018-Feb-17 16:30N 34°28' E 138°13'1018.1
2018-Feb-17 15:59N 34°25' E 138°01'1017.3
2018-Feb-17 15:25N 34°22' E 137°50'13216.5
2018-Feb-17 07:26N 33°30' E 135°24'1018.1
2018-Feb-17 06:54N 33°38' E 135°17'818.7
2018-Feb-17 06:29N 33°43' E 135°10'919.0
2018-Feb-17 06:00N 33°50' E 135°03'918.8
2018-Feb-17 05:30N 33°59' E 135°00'1019.5
2018-Feb-17 05:00N 34°09' E 134°59'1019.5
2018-Feb-17 04:30N 34°19' E 134°59'918.2
2018-Feb-17 04:00N 34°26' E 135°05'918.4
2018-Feb-17 03:30N 34°32' E 135°14'816.3
2018-Feb-17 03:00N 34°37' E 135°22'3 6.4
2018-Feb-17 02:30N 34°37' E 135°26'0 0.1
2018-Feb-17 01:58N 34°37' E 135°26'0 0.0
2018-Feb-17 01:28N 34°37' E 135°26'0 0.0
2018-Feb-17 00:58N 34°37' E 135°26'0 0.1
2018-Feb-17 00:28N 34°37' E 135°26'0 0.0
2018-Feb-16 23:58N 34°37' E 135°26'0 0.1
2018-Feb-16 23:28N 34°37' E 135°26'0 0.0
2018-Feb-16 22:58N 34°37' E 135°26'0 0.0
2018-Feb-16 22:28N 34°37' E 135°26'0 0.0
2018-Feb-16 21:58N 34°37' E 135°26'3 6.1
2018-Feb-16 21:30N 34°37' E 135°22'918.3
2018-Feb-16 21:00N 34°31' E 135°14'918.5
2018-Feb-16 20:30N 34°24' E 135°07'918.4
2018-Feb-16 20:00N 34°17' E 134°59'917.2
2018-Feb-16 19:30N 34°09' E 134°58'917.9
2018-Feb-16 19:00N 33°60' E 134°56'918.1
2018-Feb-16 18:30N 33°51' E 134°53'918.1
2018-Feb-16 18:00N 33°42' E 134°51'9417.9
2018-Feb-16 12:47N 32°53' E 133°15'  
2018-Feb-13 19:08N 32°46' E 133°14'9219.2
2018-Feb-13 14:20N 33°41' E 134°43'618.7
2018-Feb-13 14:00N 33°45' E 134°48'918.4
2018-Feb-13 13:30N 33°53' E 134°54'918.8
2018-Feb-13 13:00N 34°02' E 134°56'918.8
2018-Feb-13 12:31N 34°12' E 134°57'918.7
2018-Feb-13 12:01N 34°21' E 134°60'918.4
2018-Feb-13 11:30N 34°27' E 135°08'918.3
2018-Feb-13 11:01N 34°33' E 135°16'714.7
2018-Feb-13 10:30N 34°38' E 135°23'2 4.4
2018-Feb-13 10:00N 34°37' E 135°26'0 0.0
2018-Feb-13 09:28N 34°37' E 135°26'0 0.0
2018-Feb-13 08:59N 34°37' E 135°26'0 0.1
2018-Feb-13 08:28N 34°37' E 135°26'0 0.1
2018-Feb-13 07:55N 34°37' E 135°26'0 0.1
2018-Feb-13 07:28N 34°37' E 135°26'0 0.1
2018-Feb-13 06:58N 34°37' E 135°26'0 0.0
2018-Feb-13 06:29N 34°37' E 135°26'0 0.0
2018-Feb-13 05:58N 34°37' E 135°26'0 0.0
2018-Feb-13 05:28N 34°37' E 135°26'0 0.1
2018-Feb-13 04:58N 34°37' E 135°26'0 0.1
2018-Feb-13 04:28N 34°37' E 135°26'1 2.0
2018-Feb-13 04:00N 34°37' E 135°24'713.9
2018-Feb-13 03:31N 34°34' E 135°18'918.4
2018-Feb-13 03:01N 34°27' E 135°10'917.9
2018-Feb-13 02:31N 34°20' E 135°03'815.9
2018-Feb-13 02:00N 34°13' E 134°60'917.4
2018-Feb-13 01:31N 34°04' E 135°01'917.6
2018-Feb-13 01:01N 33°55' E 135°02'916.8
2018-Feb-13 00:29N 33°47' E 135°06'817.5
2018-Feb-13 00:00N 33°41' E 135°13'6015.4
2018-Feb-12 20:05N 33°43' E 136°25'10317.3
2018-Feb-12 14:06N 34°32' E 138°15'216.6
2018-Feb-12 13:57N 34°32' E 138°18'816.7
2018-Feb-12 13:30N 34°32' E 138°27'916.2
2018-Feb-12 12:56N 34°32' E 138°38'715.6
2018-Feb-12 12:30N 34°33' E 138°47'714.6
2018-Feb-12 12:00N 34°33' E 138°55'713.4
2018-Feb-12 11:30N 34°35' E 139°03'815.4
2018-Feb-12 11:00N 34°41' E 139°09'815.6
2018-Feb-12 10:28N 34°47' E 139°15'816.0
2018-Feb-12 09:57N 34°54' E 139°22'716.3
2018-Feb-12 09:30N 34°58' E 139°29'917.3
2018-Feb-12 09:00N 35°03' E 139°37'917.1
2018-Feb-12 08:30N 35°10' E 139°45'612.7
2018-Feb-12 08:00N 35°16' E 139°46'612.5
2018-Feb-12 07:31N 35°21' E 139°42'816.4
2018-Feb-12 07:01N 35°28' E 139°48'714.5
2018-Feb-12 06:30N 35°35' E 139°51'4 7.6
2018-Feb-12 06:00N 35°37' E 139°47'0 0.1
2018-Feb-12 03:56N 35°37' E 139°47'0 0.0
2018-Feb-11 22:52N 35°37' E 139°47'2 5.7
2018-Feb-11 22:31N 35°37' E 139°50'2 3.5
2018-Feb-11 21:52N 35°36' E 139°52'0 0.0
2018-Feb-11 21:28N 35°36' E 139°52'0 0.1
2018-Feb-11 20:55N 35°36' E 139°52'0 0.0
2018-Feb-11 20:28N 35°36' E 139°52'0 0.0
2018-Feb-11 19:55N 35°36' E 139°52'0 0.0
2018-Feb-11 19:28N 35°36' E 139°52'0 0.0
2018-Feb-11 18:52N 35°36' E 139°52'0 0.0
2018-Feb-11 18:25N 35°36' E 139°52'0 0.0
2018-Feb-11 17:55N 35°36' E 139°52'0 0.0
2018-Feb-11 17:28N 35°36' E 139°52'0 0.0
2018-Feb-11 16:52N 35°36' E 139°52'0 0.0
2018-Feb-11 16:28N 35°36' E 139°52'0 0.0
2018-Feb-11 15:58N 35°36' E 139°52'0 0.0
2018-Feb-11 15:22N 35°36' E 139°52'0 0.0
2018-Feb-11 14:58N 35°36' E 139°52'0 0.0
2018-Feb-11 14:19N 35°36' E 139°52'0 0.1
2018-Feb-11 13:58N 35°36' E 139°52'0 0.0
2018-Feb-11 13:22N 35°36' E 139°52'0 0.1
2018-Feb-11 12:58N 35°36' E 139°52'0 0.0
2018-Feb-11 12:28N 35°36' E 139°52'0 0.0
2018-Feb-11 11:55N 35°36' E 139°52'0 0.1
2018-Feb-11 11:28N 35°36' E 139°52'0 0.0
2018-Feb-11 10:58N 35°36' E 139°52'0 0.1
2018-Feb-11 10:28N 35°36' E 139°52'0 0.1
2018-Feb-11 09:58N 35°36' E 139°52'0 0.1
2018-Feb-11 09:19N 35°36' E 139°52'0 0.1
2018-Feb-11 08:55N 35°36' E 139°52'0 0.1
2018-Feb-11 08:28N 35°36' E 139°52'0 0.0
2018-Feb-11 07:58N 35°36' E 139°52'0 0.0
2018-Feb-11 07:28N 35°36' E 139°52'0 0.0
2018-Feb-11 06:58N 35°36' E 139°52'0 0.0
2018-Feb-11 06:28N 35°36' E 139°52'0 0.0
2018-Feb-11 05:58N 35°36' E 139°52'0 0.0
2018-Feb-11 05:25N 35°36' E 139°52'0 0.0
2018-Feb-11 04:58N 35°36' E 139°52'0 0.0
2018-Feb-11 04:28N 35°36' E 139°52'0 0.0
2018-Feb-11 03:58N 35°36' E 139°52'0 0.1
2018-Feb-11 03:30N 35°36' E 139°52'5 9.1
2018-Feb-11 03:00N 35°31' E 139°52'815.9
2018-Feb-11 02:30N 35°25' E 139°47'612.4
2018-Feb-11 02:01N 35°19' E 139°44'612.2
2018-Feb-11 01:31N 35°13' E 139°47'816.9
2018-Feb-11 01:00N 35°05' E 139°45'917.4
2018-Feb-11 00:31N 34°58' E 139°39'918.3
2018-Feb-11 00:00N 34°53' E 139°29'1019.8
2018-Feb-10 23:30N 34°48' E 139°19'1019.7
2018-Feb-10 23:00N 34°41' E 139°11'1019.9
2018-Feb-10 22:30N 34°34' E 139°02'918.7
2018-Feb-10 22:00N 34°31' E 138°52'1018.6
2018-Feb-10 21:30N 34°29' E 138°40'1018.3
2018-Feb-10 20:58N 34°28' E 138°29'818.0
2018-Feb-10 20:30N 34°26' E 138°19'1118.2
2018-Feb-10 19:53N 34°25' E 138°05'818.3
2018-Feb-10 19:28N 34°22' E 137°56'918.4
2018-Feb-10 19:00N 34°20' E 137°46'5318.2
2018-Feb-10 16:03N 33°58' E 136°47'117.1
2018-Feb-10 16:00N 33°57' E 136°47'7914.2
2018-Feb-10 10:25N 33°39' E 135°13'716.3
2018-Feb-10 10:00N 33°44' E 135°08'917.5
2018-Feb-10 09:30N 33°50' E 135°01'918.7
2018-Feb-10 09:00N 33°60' E 134°59'918.6
2018-Feb-10 08:31N 34°09' E 134°58'918.6
2018-Feb-10 08:00N 34°18' E 134°59'918.0
2018-Feb-10 07:30N 34°25' E 135°05'918.7
2018-Feb-10 07:01N 34°31' E 135°14'816.6
2018-Feb-10 06:30N 34°37' E 135°21'3 6.0
2018-Feb-10 06:00N 34°37' E 135°25'0 0.0
2018-Feb-10 05:30N 34°37' E 135°25'0 0.0
2018-Feb-10 05:00N 34°37' E 135°25'0 0.0
2018-Feb-10 04:30N 34°37' E 135°25'1 1.2
2018-Feb-10 04:00N 34°37' E 135°26'0 0.0
2018-Feb-10 03:29N 34°37' E 135°26'0 0.0
2018-Feb-10 02:59N 34°37' E 135°26'0 0.0
2018-Feb-10 02:26N 34°37' E 135°26'0 0.0
2018-Feb-10 01:56N 34°37' E 135°26'0 0.0
2018-Feb-10 01:29N 34°37' E 135°26'0 0.0
2018-Feb-10 00:59N 34°37' E 135°26'0 0.1
2018-Feb-10 00:29N 34°37' E 135°26'0 0.1
2018-Feb-09 23:59N 34°37' E 135°26'0 0.1
2018-Feb-09 23:29N 34°37' E 135°26'0 0.1
2018-Feb-09 22:59N 34°37' E 135°26'0 0.0
2018-Feb-09 22:44N 34°37' E 135°26'3 2.4
2018-Feb-09 21:31N 34°37' E 135°22'815.7
2018-Feb-09 21:00N 34°32' E 135°15'3618.1
2018-Feb-09 19:00N 33°59' E 134°56'  

Dump ship's entire track history